Time;durP1;ratioP1;P1;durP2;ratioP2;P2;SDS_P1;SDS_P2;PMS_P1;PMS_P2;Temp;Humidity;BMP_temperature;BMP_pressure;BME280_temperature;BME280_humidity;BME280_pressure;Samples;Min_cycle;Max_cycle;Signal;HPM_P1;HPM_P2
2022/01/21 00:02:17;;;;;;;16.50;3.10;;;1.30;99.90;;;;;;4630385;28;9999933;-75
2022/01/21 00:04:43;;;;;;;12.13;2.78;;;1.30;99.90;;;;;;4985282;28;20085;-77
2022/01/21 00:07:09;;;;;;;12.05;2.85;;;1.30;99.90;;;;;;4988356;28;20027;-74
2022/01/21 00:09:34;;;;;;;9.90;2.65;;;1.30;99.90;;;;;;4981720;28;20026;-74
2022/01/21 00:12:00;;;;;;;23.77;3.65;;;1.30;99.90;;;;;;4972827;28;20029;-74
2022/01/21 00:14:26;;;;;;;25.35;4.00;;;1.20;99.90;;;;;;4977934;28;20022;-77
2022/01/21 00:16:51;;;;;;;14.95;3.55;;;1.30;99.90;;;;;;4970891;28;20030;-77
2022/01/21 00:19:18;;;;;;;17.05;3.10;;;1.20;99.90;;;;;;4985908;28;20032;-75
2022/01/21 00:30:14;;;;;;;13.40;3.08;;;1.10;99.90;;;;;;4982842;28;20109;-74
2022/01/21 00:32:42;;;;;;;11.40;3.00;;;1.10;99.90;;;;;;4984570;28;20466;-77
2022/01/21 00:35:08;;;;;;;14.65;3.03;;;1.00;99.90;;;;;;4986354;28;20401;-77
2022/01/21 00:37:35;;;;;;;13.40;3.30;;;1.00;99.90;;;;;;4988279;28;20039;-78
2022/01/21 00:40:02;;;;;;;16.45;3.35;;;1.00;99.90;;;;;;4984847;28;20066;-74
2022/01/21 00:43:31;;;;;;;21.17;3.47;;;1.00;99.90;;;;;;4982679;28;20034;-77
2022/01/21 00:45:24;;;;;;;13.25;2.80;;;1.00;99.90;;;;;;4965858;28;20129;-77
2022/01/21 00:47:50;;;;;;;15.85;2.95;;;0.90;99.90;;;;;;4993571;28;20438;-74
2022/01/21 00:50:16;;;;;;;16.38;2.90;;;0.90;99.90;;;;;;4982591;28;20034;-74
2022/01/21 00:52:42;;;;;;;22.65;3.42;;;1.00;99.90;;;;;;4988411;28;20035;-74
2022/01/21 00:55:08;;;;;;;20.33;4.07;;;0.90;99.90;;;;;;4987725;28;20030;-74
2022/01/21 00:57:34;;;;;;;11.35;2.95;;;0.90;99.90;;;;;;4983801;28;20077;-74
2022/01/21 01:00:00;;;;;;;14.73;3.03;;;0.90;99.90;;;;;;4985163;28;20046;-74
2022/01/21 01:02:26;;;;;;;10.43;2.88;;;0.90;99.90;;;;;;4982367;28;20089;-74
2022/01/21 01:04:51;;;;;;;14.85;3.10;;;0.90;99.90;;;;;;4983454;28;20033;-74
2022/01/21 01:07:19;;;;;;;20.00;3.03;;;0.90;99.90;;;;;;4985604;28;20042;-74
2022/01/21 01:09:50;;;;;;;18.35;3.20;;;0.90;99.90;;;;;;4981961;28;20427;-76
2022/01/21 01:12:27;;;;;;;16.17;2.60;;;0.90;99.90;;;;;;4980221;28;20160;-74
2022/01/21 01:20:21;;;;;;;14.00;2.88;;;1.00;99.90;;;;;;4969788;28;20101;-74
2022/01/21 01:22:54;;;;;;;18.33;2.00;;;1.00;99.90;;;;;;4978565;28;20078;-74
2022/01/21 01:28:05;;;;;;;14.50;3.10;;;1.00;99.90;;;;;;4986450;28;20049;-75
2022/01/21 01:30:33;;;;;;;15.07;3.15;;;1.00;99.90;;;;;;4968450;28;20049;-74
2022/01/21 01:33:01;;;;;;;15.18;3.03;;;1.00;99.90;;;;;;4963198;28;20094;-74
2022/01/21 01:35:32;;;;;;;17.73;3.38;;;1.00;99.90;;;;;;4967521;28;20046;-75
2022/01/21 01:40:35;;;;;;;19.95;3.28;;;1.00;99.90;;;;;;4963734;28;20023;-74
2022/01/21 01:51:16;;;;;;;15.75;2.90;;;1.00;99.90;;;;;;4956418;28;20537;-74
2022/01/21 01:53:52;;;;;;;16.58;3.15;;;1.00;99.90;;;;;;4968274;28;20031;-75
2022/01/21 01:56:23;;;;;;;13.52;2.95;;;1.00;99.90;;;;;;4957911;28;20443;-75
2022/01/21 01:58:49;;;;;;;16.83;3.67;;;1.00;99.90;;;;;;4958327;28;20038;-74
2022/01/21 02:01:14;;;;;;;17.17;3.53;;;1.00;99.90;;;;;;4962749;28;20049;-74
2022/01/21 02:03:40;;;;;;;16.55;3.38;;;1.00;99.90;;;;;;4964382;28;20039;-74
2022/01/21 02:06:06;;;;;;;13.88;3.33;;;1.00;99.90;;;;;;4965574;28;20408;-74
2022/01/21 02:08:32;;;;;;;14.93;3.53;;;1.00;99.90;;;;;;4962252;28;20446;-74
2022/01/21 02:10:57;;;;;;;12.25;2.80;;;1.00;99.90;;;;;;4958436;28;20050;-74
2022/01/21 02:13:27;;;;;;;13.82;2.63;;;1.00;99.90;;;;;;4967565;28;20039;-74
2022/01/21 02:16:07;;;;;;;17.48;3.03;;;1.00;99.90;;;;;;4965943;28;20495;-75
2022/01/21 02:23:56;;;;;;;19.27;3.05;;;0.90;99.90;;;;;;4967230;28;20066;-74
2022/01/21 02:26:22;;;;;;;15.35;3.08;;;0.80;99.90;;;;;;4967793;28;20033;-74
2022/01/21 02:28:48;;;;;;;18.40;3.75;;;0.80;99.90;;;;;;4970934;28;20177;-77
2022/01/21 02:31:13;;;;;;;14.63;3.00;;;0.80;99.90;;;;;;4977133;28;20117;-74
2022/01/21 02:33:39;;;;;;;15.65;2.80;;;0.80;99.90;;;;;;4972818;28;20118;-74
2022/01/21 02:36:05;;;;;;;18.50;3.95;;;0.80;99.90;;;;;;4989482;28;20037;-73
2022/01/21 02:38:30;;;;;;;13.50;3.17;;;0.80;99.90;;;;;;4986506;28;20026;-76
2022/01/21 02:40:56;;;;;;;15.95;3.15;;;0.80;99.90;;;;;;4981695;28;20128;-74
2022/01/21 02:43:23;;;;;;;15.63;3.03;;;0.80;99.90;;;;;;4979071;28;20023;-77
2022/01/21 02:45:49;;;;;;;26.02;3.17;;;0.70;99.90;;;;;;4978894;28;20403;-76
2022/01/21 02:48:15;;;;;;;14.85;2.70;;;0.70;99.90;;;;;;4984885;28;20027;-74
2022/01/21 02:50:41;;;;;;;17.52;3.00;;;0.70;99.90;;;;;;4978782;28;20026;-74
2022/01/21 02:53:12;;;;;;;15.57;2.85;;;0.70;99.90;;;;;;4984964;28;20104;-74
2022/01/21 02:55:38;;;;;;;16.40;3.13;;;0.60;99.90;;;;;;4988248;28;20060;-76
2022/01/21 02:58:03;;;;;;;14.23;3.40;;;0.70;99.90;;;;;;4983818;28;20057;-76
2022/01/21 03:00:29;;;;;;;13.70;2.65;;;0.70;99.90;;;;;;4983033;28;20109;-76
2022/01/21 03:02:55;;;;;;;17.83;3.85;;;0.80;99.90;;;;;;4986736;28;20026;-76
2022/01/21 03:05:21;;;;;;;12.48;2.70;;;0.80;99.90;;;;;;4983839;28;20387;-77
2022/01/21 03:07:48;;;;;;;15.00;3.65;;;0.80;99.90;;;;;;4983082;28;20022;-76
2022/01/21 03:10:15;;;;;;;14.93;3.22;;;0.80;99.90;;;;;;4988269;28;20030;-76
2022/01/21 03:12:42;;;;;;;13.88;3.15;;;0.80;99.90;;;;;;4971217;28;20479;-76
2022/01/21 03:15:08;;;;;;;21.10;3.38;;;0.80;99.90;;;;;;4984241;28;20046;-77
2022/01/21 03:17:34;;;;;;;16.55;3.30;;;0.80;99.90;;;;;;4982091;28;20030;-74
2022/01/21 03:20:01;;;;;;;18.35;3.50;;;0.80;99.90;;;;;;4983366;28;20029;-74
2022/01/21 03:22:26;;;;;;;11.38;3.28;;;0.80;99.90;;;;;;4978857;28;20126;-74
2022/01/21 03:24:52;;;;;;;13.48;3.35;;;0.70;99.90;;;;;;4977101;28;20578;-74
2022/01/21 03:27:18;;;;;;;13.88;3.05;;;0.70;99.90;;;;;;4986641;28;20105;-74
2022/01/21 03:29:44;;;;;;;10.77;3.08;;;0.70;99.90;;;;;;4985202;28;20046;-74
2022/01/21 03:32:10;;;;;;;14.75;2.92;;;0.60;99.90;;;;;;4977992;28;20061;-74
2022/01/21 03:34:36;;;;;;;16.48;4.35;;;0.60;99.90;;;;;;4986555;28;20054;-74
2022/01/21 03:37:02;;;;;;;18.70;3.67;;;0.70;99.90;;;;;;4986902;28;20037;-74
2022/01/21 03:39:27;;;;;;;14.10;3.08;;;0.80;99.90;;;;;;4983979;28;20030;-74
2022/01/21 03:41:53;;;;;;;16.25;3.25;;;0.80;99.90;;;;;;4986232;28;20442;-74
2022/01/21 03:44:19;;;;;;;14.85;3.40;;;0.80;99.90;;;;;;4984537;28;20019;-74
2022/01/21 03:46:44;;;;;;;18.92;3.75;;;0.90;99.90;;;;;;4980883;28;20026;-74
2022/01/21 03:49:10;;;;;;;9.63;2.75;;;0.90;99.90;;;;;;4982815;28;20038;-74
2022/01/21 03:51:36;;;;;;;16.92;3.40;;;0.90;99.90;;;;;;4988194;28;20542;-74
2022/01/21 03:54:02;;;;;;;18.65;3.75;;;0.90;99.90;;;;;;4983039;28;20550;-75
2022/01/21 03:56:27;;;;;;;14.32;3.10;;;0.90;99.90;;;;;;4976133;28;20031;-74
2022/01/21 03:58:53;;;;;;;11.10;3.38;;;1.00;99.90;;;;;;4982474;28;20207;-73
2022/01/21 04:01:20;;;;;;;12.25;3.03;;;1.00;99.90;;;;;;4987100;28;20022;-74
2022/01/21 04:03:46;;;;;;;16.63;3.55;;;1.00;99.90;;;;;;4973790;28;20023;-76
2022/01/21 04:06:12;;;;;;;13.25;2.97;;;1.00;99.90;;;;;;4986343;28;20397;-74
2022/01/21 04:08:38;;;;;;;17.70;3.78;;;1.00;99.90;;;;;;4980445;28;20121;-74
2022/01/21 04:11:04;;;;;;;13.88;3.38;;;1.00;99.90;;;;;;4979983;28;20129;-74
2022/01/21 04:13:30;;;;;;;12.10;2.90;;;1.00;99.90;;;;;;4980442;28;20041;-74
2022/01/21 04:15:57;;;;;;;16.15;3.42;;;1.00;99.90;;;;;;4977331;28;20088;-76
2022/01/21 04:18:23;;;;;;;10.40;2.63;;;1.00;99.90;;;;;;4975319;28;20031;-76
2022/01/21 04:20:51;;;;;;;12.82;3.47;;;1.00;99.90;;;;;;4986155;28;20073;-76
2022/01/21 04:23:18;;;;;;;10.48;3.03;;;1.00;99.90;;;;;;4981694;28;20085;-76
2022/01/21 04:25:44;;;;;;;9.30;2.55;;;1.00;99.90;;;;;;4980922;28;20026;-76
2022/01/21 04:28:11;;;;;;;14.95;2.78;;;1.00;99.90;;;;;;4984811;28;20026;-76
2022/01/21 04:30:37;;;;;;;15.43;3.20;;;0.90;99.90;;;;;;4980692;28;20038;-76
2022/01/21 04:33:04;;;;;;;12.35;2.80;;;0.90;99.90;;;;;;4985760;28;20023;-76
2022/01/21 04:35:30;;;;;;;15.32;3.08;;;0.90;99.90;;;;;;4981791;28;20270;-76
2022/01/21 04:38:00;;;;;;;13.32;2.95;;;0.90;99.90;;;;;;4985739;28;20446;-76
2022/01/21 04:40:30;;;;;;;16.70;3.35;;;0.90;99.90;;;;;;4982083;28;20035;-76
2022/01/21 04:48:27;;;;;;;15.70;3.00;;;0.90;99.90;;;;;;4972377;28;20099;-77
2022/01/21 04:51:11;;;;;;;11.57;3.17;;;0.90;99.90;;;;;;4982519;28;20034;-75
2022/01/21 04:53:38;;;;;;;13.55;3.03;;;0.90;99.90;;;;;;4978227;28;20035;-75
2022/01/21 04:56:04;;;;;;;15.70;3.30;;;0.90;99.90;;;;;;4976461;28;20038;-75
2022/01/21 04:58:29;;;;;;;14.05;2.92;;;1.00;99.90;;;;;;4977787;28;20113;-75
2022/01/21 05:00:55;;;;;;;17.45;3.33;;;1.00;99.90;;;;;;4974622;28;20113;-75
2022/01/21 05:03:21;;;;;;;12.73;3.20;;;1.00;99.90;;;;;;4975646;28;20474;-75
2022/01/21 05:05:46;;;;;;;19.98;4.53;;;1.00;99.90;;;;;;4974330;28;20037;-76
2022/01/21 05:08:24;;;;;;;14.95;3.00;;;1.00;99.90;;;;;;4976902;28;20034;-76
2022/01/21 05:10:50;;;;;;;14.60;3.17;;;1.10;99.90;;;;;;4629538;28;10000079;-76
2022/01/21 05:13:18;;;;;;;13.05;3.20;;;1.00;99.90;;;;;;4975563;28;20045;-76
2022/01/21 05:15:59;;;;;;;17.98;3.60;;;1.00;99.90;;;;;;4976614;28;20041;-76
2022/01/21 05:18:25;;;;;;;13.60;2.97;;;1.00;99.90;;;;;;4978408;28;20406;-76
2022/01/21 05:20:51;;;;;;;14.05;2.83;;;1.00;99.90;;;;;;4977233;28;20027;-75
2022/01/21 05:23:17;;;;;;;15.52;2.97;;;1.00;99.90;;;;;;4984367;28;20437;-75
2022/01/21 05:25:42;;;;;;;12.82;2.88;;;1.00;99.90;;;;;;4978590;28;20535;-76
2022/01/21 05:28:08;;;;;;;12.23;2.72;;;1.10;99.90;;;;;;4978993;28;20257;-76
2022/01/21 05:30:33;;;;;;;11.80;2.47;;;1.10;99.90;;;;;;4978560;28;20038;-76
2022/01/21 05:32:59;;;;;;;14.50;3.20;;;1.10;99.90;;;;;;4980493;28;20255;-76
2022/01/21 05:35:25;;;;;;;14.40;3.45;;;1.10;99.90;;;;;;4975709;28;20057;-77
2022/01/21 05:37:51;;;;;;;11.43;2.75;;;1.10;99.90;;;;;;4974627;28;20525;-76
2022/01/21 05:40:18;;;;;;;18.63;3.15;;;1.10;99.90;;;;;;4972902;28;20018;-76
2022/01/21 05:42:44;;;;;;;10.70;2.50;;;1.10;99.90;;;;;;4968705;28;20027;-76
2022/01/21 05:47:54;;;;;;;14.85;3.00;;;1.20;99.90;;;;;;4985924;28;20089;-76
2022/01/21 05:50:20;;;;;;;12.73;3.20;;;1.20;99.90;;;;;;4985479;28;20034;-76
2022/01/21 05:52:47;;;;;;;15.63;3.42;;;1.10;99.90;;;;;;4975659;28;20027;-76
2022/01/21 05:55:14;;;;;;;11.32;3.17;;;1.20;99.90;;;;;;4977946;28;20556;-76
2022/01/21 05:57:39;;;;;;;14.18;2.50;;;1.10;99.90;;;;;;4976877;28;20099;-76
2022/01/21 06:00:05;;;;;;;10.38;2.53;;;1.20;99.90;;;;;;4979123;28;20038;-76
2022/01/21 06:02:32;;;;;;;15.93;3.10;;;1.20;99.90;;;;;;4980380;28;20443;-76
2022/01/21 06:04:57;;;;;;;19.77;3.35;;;1.20;99.90;;;;;;4982294;28;20029;-76
2022/01/21 06:07:23;;;;;;;16.63;3.08;;;1.20;99.90;;;;;;4981839;28;20034;-76
2022/01/21 06:09:49;;;;;;;12.75;2.65;;;1.20;99.90;;;;;;4983770;28;20022;-76
2022/01/21 06:12:14;;;;;;;17.80;3.28;;;1.20;99.90;;;;;;4979736;28;20070;-74
2022/01/21 06:14:40;;;;;;;15.18;3.25;;;1.20;99.90;;;;;;4987655;28;20088;-76
2022/01/21 06:17:06;;;;;;;21.33;3.63;;;1.20;99.90;;;;;;4978356;28;20096;-76
2022/01/21 06:19:32;;;;;;;13.35;2.72;;;1.20;99.90;;;;;;4975217;28;20040;-76
2022/01/21 06:21:57;;;;;;;22.77;3.85;;;1.20;99.90;;;;;;4986117;28;20509;-77
2022/01/21 06:24:23;;;;;;;15.68;2.67;;;1.20;99.90;;;;;;4987880;28;20038;-76
2022/01/21 06:26:49;;;;;;;14.50;3.42;;;1.20;99.90;;;;;;4987512;28;20061;-76
2022/01/21 06:29:14;;;;;;;16.30;3.08;;;1.20;99.90;;;;;;4988720;28;20042;-76
2022/01/21 06:31:40;;;;;;;12.95;2.75;;;1.20;99.90;;;;;;4972773;28;20126;-76
2022/01/21 06:34:06;;;;;;;10.88;2.30;;;1.20;99.90;;;;;;4981007;28;20478;-76
2022/01/21 06:36:31;;;;;;;20.77;3.30;;;1.30;99.90;;;;;;4979219;28;20303;-76
2022/01/21 06:38:57;;;;;;;13.27;3.45;;;1.20;99.90;;;;;;4988668;28;20027;-76
2022/01/21 06:41:23;;;;;;;18.52;4.63;;;1.20;99.90;;;;;;4981774;28;20057;-76
2022/01/21 06:43:50;;;;;;;14.73;4.43;;;1.20;99.90;;;;;;4976130;28;20033;-76
2022/01/21 06:46:15;;;;;;;15.02;3.50;;;1.20;99.90;;;;;;4983092;28;20037;-76
2022/01/21 06:48:41;;;;;;;18.70;3.88;;;1.20;99.90;;;;;;4977197;28;20027;-76
2022/01/21 06:51:07;;;;;;;17.70;5.38;;;1.20;99.90;;;;;;4981998;28;20586;-76
2022/01/21 06:53:33;;;;;;;22.48;6.65;;;1.20;99.90;;;;;;4979318;28;20430;-76
2022/01/21 06:55:59;;;;;;;19.38;5.75;;;1.20;99.90;;;;;;4982919;28;20061;-76
2022/01/21 06:58:24;;;;;;;20.67;4.97;;;1.20;99.90;;;;;;4986574;28;20475;-76
2022/01/21 07:00:50;;;;;;;22.05;5.40;;;1.30;99.90;;;;;;4984310;28;20029;-76
2022/01/21 07:03:15;;;;;;;15.45;4.55;;;1.30;99.90;;;;;;4973196;28;20593;-76
2022/01/21 07:05:46;;;;;;;21.85;5.93;;;1.30;99.90;;;;;;4988419;28;20022;-75
2022/01/21 07:08:14;;;;;;;17.70;5.05;;;1.30;99.90;;;;;;4984470;28;20502;-76
2022/01/21 07:10:39;;;;;;;18.42;4.07;;;1.30;99.90;;;;;;4989693;28;20022;-76
2022/01/21 07:13:05;;;;;;;10.20;3.25;;;1.30;99.90;;;;;;4982433;28;20039;-76
2022/01/21 07:15:31;;;;;;;11.70;2.83;;;1.30;99.90;;;;;;4985265;28;20026;-76
2022/01/21 07:17:56;;;;;;;12.95;3.03;;;1.40;99.90;;;;;;4978640;28;20150;-76
2022/01/21 07:20:22;;;;;;;22.30;3.58;;;1.30;99.90;;;;;;4975221;28;20087;-76
2022/01/21 07:22:48;;;;;;;13.68;2.88;;;1.40;99.90;;;;;;4985017;28;20319;-76
2022/01/21 07:25:14;;;;;;;10.48;2.42;;;1.40;99.90;;;;;;4978296;28;20030;-76
2022/01/21 07:27:42;;;;;;;8.73;2.80;;;1.40;99.90;;;;;;4983762;28;20462;-76
2022/01/21 07:30:09;;;;;;;21.30;3.40;;;1.40;99.90;;;;;;4981741;28;20518;-76
2022/01/21 07:32:34;;;;;;;14.10;3.25;;;1.50;99.90;;;;;;4977567;28;20038;-76
2022/01/21 07:35:00;;;;;;;12.70;3.25;;;1.50;99.90;;;;;;4981678;28;20034;-76
2022/01/21 07:37:26;;;;;;;17.13;2.70;;;1.50;99.90;;;;;;4984204;28;20085;-76
2022/01/21 07:39:52;;;;;;;16.73;3.13;;;1.50;99.90;;;;;;4982529;28;20027;-76
2022/01/21 07:42:18;;;;;;;13.50;3.00;;;1.50;99.90;;;;;;4977517;28;20031;-76
2022/01/21 07:44:43;;;;;;;19.63;3.25;;;1.50;99.90;;;;;;4984592;28;20031;-76
2022/01/21 07:47:09;;;;;;;23.27;3.50;;;1.50;99.90;;;;;;4980341;28;20049;-76
2022/01/21 07:49:35;;;;;;;17.80;3.28;;;1.50;99.90;;;;;;4980840;28;20631;-76
2022/01/21 07:52:01;;;;;;;19.88;3.28;;;1.50;99.90;;;;;;4978518;28;20097;-76
2022/01/21 07:54:26;;;;;;;21.38;2.92;;;1.60;99.90;;;;;;4983520;28;20030;-76
2022/01/21 07:56:53;;;;;;;16.55;3.50;;;1.60;99.90;;;;;;4972008;28;20046;-76
2022/01/21 07:59:18;;;;;;;17.67;3.83;;;1.60;99.90;;;;;;4980431;28;20027;-76
2022/01/21 08:01:44;;;;;;;18.15;3.35;;;1.60;99.90;;;;;;4985015;28;20041;-76
2022/01/21 08:04:11;;;;;;;22.92;3.47;;;1.60;99.90;;;;;;4979384;28;20042;-76
2022/01/21 08:06:37;;;;;;;18.83;3.17;;;1.70;99.90;;;;;;4978721;28;20027;-76
2022/01/21 08:09:04;;;;;;;19.20;3.75;;;1.70;99.90;;;;;;4979386;28;20033;-76
2022/01/21 08:11:30;;;;;;;16.83;3.10;;;1.70;99.90;;;;;;4987528;28;20038;-76
2022/01/21 08:13:55;;;;;;;13.73;3.42;;;1.70;99.90;;;;;;4988522;28;20041;-76
2022/01/21 08:16:21;;;;;;;13.55;3.33;;;1.70;99.90;;;;;;4984248;28;20442;-76
2022/01/21 08:18:48;;;;;;;11.70;3.20;;;1.80;99.90;;;;;;4987354;28;20053;-76
2022/01/21 08:21:18;;;;;;;16.63;3.00;;;1.80;99.90;;;;;;4982520;28;20035;-76
2022/01/21 08:23:48;;;;;;;17.38;3.55;;;1.80;99.90;;;;;;4985778;28;20065;-76
2022/01/21 08:26:14;;;;;;;16.27;3.42;;;1.90;99.90;;;;;;4987427;28;20498;-76
2022/01/21 08:28:40;;;;;;;10.40;2.85;;;1.90;99.90;;;;;;4983420;28;20050;-76
2022/01/21 08:31:06;;;;;;;19.13;3.45;;;1.90;99.90;;;;;;4986884;28;20395;-76
2022/01/21 08:33:32;;;;;;;16.08;3.28;;;1.90;99.90;;;;;;4986687;28;20056;-76
2022/01/21 08:35:57;;;;;;;14.48;2.97;;;1.90;99.90;;;;;;4978063;28;20048;-77
2022/01/21 08:38:23;;;;;;;17.00;3.15;;;1.90;99.90;;;;;;4979145;28;20327;-78
2022/01/21 08:40:49;;;;;;;11.25;2.92;;;1.90;99.90;;;;;;4986662;28;20088;-76
2022/01/21 08:43:15;;;;;;;14.32;3.10;;;1.80;99.90;;;;;;4986349;28;20453;-76
2022/01/21 08:45:40;;;;;;;15.60;3.38;;;1.90;99.90;;;;;;4984535;28;20190;-77
2022/01/21 08:48:06;;;;;;;15.68;2.70;;;1.90;99.90;;;;;;4981743;28;20080;-77
2022/01/21 08:50:32;;;;;;;10.63;3.05;;;1.90;99.90;;;;;;4983525;28;20109;-78
2022/01/21 08:53:09;;;;;;;12.88;3.00;;;1.90;99.90;;;;;;4976804;28;20114;-78
2022/01/21 08:55:35;;;;;;;18.02;3.92;;;1.90;99.90;;;;;;4978006;28;20041;-77
2022/01/21 08:58:01;;;;;;;19.48;3.47;;;2.00;99.90;;;;;;4972415;28;20027;-77
2022/01/21 09:00:27;;;;;;;16.38;3.33;;;2.00;99.90;;;;;;4981207;28;20042;-77
2022/01/21 09:02:53;;;;;;;16.48;2.85;;;2.10;99.90;;;;;;4968988;28;20066;-76
2022/01/21 09:05:19;;;;;;;13.27;3.08;;;2.10;99.90;;;;;;4975860;28;20026;-76
2022/01/21 09:07:45;;;;;;;12.15;2.80;;;2.10;99.90;;;;;;4978856;28;20050;-77
2022/01/21 09:10:11;;;;;;;16.67;3.40;;;2.10;99.90;;;;;;4985017;28;20060;-76
2022/01/21 09:12:37;;;;;;;11.18;3.47;;;2.20;99.90;;;;;;4984009;28;20211;-76
2022/01/21 09:15:06;;;;;;;13.18;3.20;;;2.20;99.90;;;;;;4979789;28;20043;-76
2022/01/21 09:17:33;;;;;;;14.98;2.92;;;2.20;99.90;;;;;;4976877;28;20034;-76
2022/01/21 09:19:59;;;;;;;9.50;2.63;;;2.20;99.90;;;;;;4969619;28;20106;-76
2022/01/21 09:22:25;;;;;;;10.88;2.70;;;2.30;99.90;;;;;;4981004;28;20105;-76
2022/01/21 09:24:50;;;;;;;11.32;2.80;;;2.20;99.90;;;;;;4972670;28;20052;-76
2022/01/21 09:27:16;;;;;;;15.15;3.03;;;2.30;99.90;;;;;;4982021;28;20027;-76
2022/01/21 09:29:41;;;;;;;15.60;3.50;;;2.30;99.90;;;;;;4983016;28;20051;-76
2022/01/21 09:32:07;;;;;;;10.15;2.80;;;2.30;99.90;;;;;;4982117;28;20034;-76
2022/01/21 09:34:33;;;;;;;14.55;2.67;;;2.30;99.90;;;;;;4983984;28;20097;-76
2022/01/21 09:37:00;;;;;;;15.77;3.15;;;2.40;99.90;;;;;;4982333;28;20110;-76
2022/01/21 09:39:29;;;;;;;7.68;2.03;;;2.40;99.90;;;;;;4973450;28;20477;-75
2022/01/21 09:42:00;;;;;;;7.95;2.10;;;2.50;99.90;;;;;;4983351;28;20392;-75
2022/01/21 09:44:28;;;;;;;8.27;2.20;;;2.50;99.90;;;;;;4985802;28;20035;-76
2022/01/21 09:46:57;;;;;;;11.95;2.00;;;2.60;99.90;;;;;;4980395;28;20031;-76
2022/01/21 09:49:26;;;;;;;8.45;1.98;;;2.60;99.90;;;;;;4985858;28;20113;-76
2022/01/21 09:51:57;;;;;;;3.63;1.60;;;2.70;99.90;;;;;;4983479;28;20041;-76
2022/01/21 09:54:25;;;;;;;7.78;1.90;;;2.70;99.90;;;;;;4978998;28;20029;-76
2022/01/21 09:56:53;;;;;;;8.48;1.88;;;2.70;99.90;;;;;;4984192;28;20093;-76
2022/01/21 09:59:21;;;;;;;7.40;2.47;;;2.80;99.90;;;;;;4984147;28;20105;-76
2022/01/21 10:01:53;;;;;;;10.00;2.75;;;2.90;99.90;;;;;;4987827;28;20534;-75
2022/01/21 10:04:21;;;;;;;10.38;5.07;;;2.90;99.90;;;;;;4978837;28;20491;-76
2022/01/21 10:06:47;;;;;;;6.75;2.50;;;2.90;99.90;;;;;;4979785;28;20097;-76
2022/01/21 10:09:15;;;;;;;9.45;1.80;;;2.90;99.90;;;;;;4982439;28;20030;-72
2022/01/21 10:11:48;;;;;;;7.63;2.28;;;3.00;99.90;;;;;;4978169;28;20038;-76
2022/01/21 10:14:14;;;;;;;9.32;1.95;;;3.00;99.90;;;;;;4984340;28;20767;-76
2022/01/21 10:16:42;;;;;;;7.80;1.73;;;3.00;99.90;;;;;;4983088;28;20458;-76
2022/01/21 10:19:11;;;;;;;6.10;1.75;;;2.90;99.90;;;;;;4982297;28;20031;-74
2022/01/21 10:21:39;;;;;;;6.43;1.60;;;2.90;99.90;;;;;;4984765;28;20026;-75
2022/01/21 10:24:11;;;;;;;6.22;1.85;;;2.90;99.90;;;;;;4982143;28;20030;-75
2022/01/21 10:26:49;;;;;;;5.13;1.80;;;2.90;99.90;;;;;;4985598;28;20427;-75
2022/01/21 10:29:15;;;;;;;8.02;1.83;;;2.90;99.90;;;;;;4938958;28;1094962;-75
2022/01/21 10:31:55;;;;;;;4.05;1.95;;;2.80;99.90;;;;;;4990425;28;20415;-76
2022/01/21 10:34:42;;;;;;;6.07;1.88;;;2.80;99.90;;;;;;4983970;28;20038;-76
2022/01/21 10:37:30;;;;;;;9.75;2.05;;;2.80;99.90;;;;;;4982111;28;20249;-76
2022/01/21 10:40:08;;;;;;;9.52;2.28;;;2.80;99.90;;;;;;4977219;28;20134;-75
2022/01/21 10:42:35;;;;;;;9.57;2.08;;;2.80;99.90;;;;;;4985378;28;20742;-75
2022/01/21 10:45:02;;;;;;;8.05;2.00;;;2.80;99.90;;;;;;4985205;28;20022;-76
2022/01/21 10:47:32;;;;;;;8.35;1.80;;;3.00;99.90;;;;;;4986035;28;20490;-77
2022/01/21 10:50:11;;;;;;;5.28;1.75;;;3.00;99.90;;;;;;4984823;28;20042;-76
2022/01/21 10:52:57;;;;;;;5.47;1.65;;;3.00;99.90;;;;;;4286711;28;10000798;-76
2022/01/21 10:55:32;;;;;;;7.50;2.10;;;3.00;99.90;;;;;;4977023;28;20046;-76
2022/01/21 10:58:18;;;;;;;7.53;2.17;;;3.00;99.90;;;;;;4982708;28;20538;-75
2022/01/21 11:01:02;;;;;;;8.60;2.40;;;2.90;99.90;;;;;;4978482;28;20170;-76
2022/01/21 11:03:30;;;;;;;8.93;2.35;;;2.90;99.90;;;;;;4968286;28;20043;-76
2022/01/21 11:06:13;;;;;;;7.60;2.22;;;3.00;99.90;;;;;;4980344;28;20105;-74
2022/01/21 11:08:38;;;;;;;9.82;2.13;;;3.10;99.90;;;;;;4982294;28;20042;-77
2022/01/21 11:11:04;;;;;;;9.27;2.38;;;3.10;99.90;;;;;;4978041;28;20046;-76
2022/01/21 11:13:32;;;;;;;7.68;2.00;;;3.10;99.90;;;;;;4968979;28;20027;-76
2022/01/21 11:16:11;;;;;;;14.55;2.55;;;3.20;99.90;;;;;;4975588;28;20035;-76
2022/01/21 11:18:54;;;;;;;9.85;2.30;;;3.20;99.90;;;;;;4978199;28;20541;-76
2022/01/21 11:21:21;;;;;;;10.52;2.47;;;3.20;99.90;;;;;;4985551;28;20061;-76
2022/01/21 11:23:46;;;;;;;8.07;1.95;;;3.20;99.90;;;;;;4985903;28;20114;-75
2022/01/21 11:26:16;;;;;;;9.38;2.38;;;3.20;99.90;;;;;;4979917;28;20137;-75
2022/01/21 11:28:46;;;;;;;10.98;2.42;;;3.20;99.90;;;;;;4977916;28;20126;-75
2022/01/21 11:31:14;;;;;;;9.82;2.33;;;3.20;99.90;;;;;;4973130;28;20542;-75
2022/01/21 11:33:40;;;;;;;15.25;2.70;;;;;;;;;;4978624;28;20038;-76
2022/01/21 11:36:07;;;;;;;8.43;2.15;;;3.30;99.90;;;;;;4982153;28;20034;-76
2022/01/21 11:38:44;;;;;;;11.40;3.00;;;3.40;99.90;;;;;;4985121;28;20500;-77
2022/01/21 11:41:11;;;;;;;9.98;2.55;;;;;;;;;;4982505;28;20117;-76
2022/01/21 11:43:39;;;;;;;13.95;4.55;;;3.30;99.90;;;;;;4985665;28;20030;-76
2022/01/21 11:48:58;;;;;;;11.05;3.63;;;3.40;99.90;;;;;;4971963;28;20318;-75
2022/01/21 11:51:32;;;;;;;10.73;2.50;;;3.50;99.90;;;;;;4974522;28;20045;-76
2022/01/21 11:54:00;;;;;;;11.15;3.55;;;3.60;99.90;;;;;;4979288;28;20299;-77
2022/01/21 11:56:32;;;;;;;13.05;3.53;;;3.60;99.90;;;;;;4977916;28;20053;-75
2022/01/21 12:02:00;;;;;;;19.00;6.82;;;3.70;99.90;;;;;;4957546;28;20034;-75
2022/01/21 12:04:42;;;;;;;15.68;5.32;;;3.70;99.90;;;;;;4981469;28;20090;-76
2022/01/21 12:07:33;;;;;;;11.97;4.37;;;3.70;99.90;;;;;;4983696;28;20562;-76
2022/01/21 12:10:02;;;;;;;9.35;2.58;;;3.70;99.90;;;;;;4978192;28;20298;-76
2022/01/21 12:13:04;;;;;;;8.48;1.90;;;3.70;99.90;;;;;;4976425;28;20046;-75
2022/01/21 12:15:42;;;;;;;10.85;2.33;;;3.80;99.90;;;;;;4966200;28;20367;-76
2022/01/21 12:20:43;;;;;;;6.00;1.90;;;3.80;99.90;;;;;;4973064;28;20045;-76
2022/01/21 12:23:15;;;;;;;8.13;2.45;;;3.80;99.90;;;;;;4973379;28;20067;-76
2022/01/21 12:26:08;;;;;;;8.18;3.10;;;3.80;99.90;;;;;;4985857;28;20040;-77
2022/01/21 12:28:35;;;;;;;8.65;2.75;;;3.80;99.90;;;;;;4975899;28;20108;-76
2022/01/21 12:31:02;;;;;;;10.45;3.28;;;3.80;99.90;;;;;;4985117;28;20038;-76
2022/01/21 12:34:04;;;;;;;8.25;3.03;;;3.90;99.90;;;;;;4976855;28;20092;-75
2022/01/21 12:36:34;;;;;;;11.20;4.10;;;3.80;99.90;;;;;;4980613;28;20042;-75
2022/01/21 12:41:35;;;;;;;11.40;4.43;;;3.90;99.90;;;;;;4981590;28;20525;-76
2022/01/21 12:44:04;;;;;;;15.27;3.47;;;3.90;99.90;;;;;;4982843;28;20569;-76
2022/01/21 12:46:36;;;;;;;10.98;3.65;;;3.80;99.90;;;;;;4983629;28;20061;-76
2022/01/21 12:49:50;;;;;;;11.80;2.43;;;3.80;99.90;;;;;;4980754;28;20483;-76
2022/01/21 12:52:29;;;;;;;;;;;3.80;99.90;;;;;;4977486;28;20156;-76
2022/01/21 12:57:41;;;;;;;12.63;2.97;;;3.80;99.90;;;;;;4979955;28;20167;-72
2022/01/21 13:00:09;;;;;;;13.30;3.10;;;3.80;99.90;;;;;;4977400;28;20539;-73
2022/01/21 13:02:36;;;;;;;14.07;3.47;;;3.80;99.90;;;;;;4975590;28;20030;-72
2022/01/21 13:05:01;;;;;;;12.30;2.90;;;3.80;99.90;;;;;;4973035;28;20109;-73
2022/01/21 13:07:49;;;;;;;9.90;3.10;;;3.70;99.90;;;;;;4975166;28;20026;-73
2022/01/21 13:10:18;;;;;;;10.30;3.55;;;3.60;99.90;;;;;;4977514;28;20034;-73
2022/01/21 13:15:38;;;;;;;17.85;3.55;;;3.60;99.90;;;;;;4974915;28;20113;-73
2022/01/21 13:18:05;;;;;;;10.57;3.58;;;3.60;99.90;;;;;;4980719;28;20034;-73
2022/01/21 13:20:32;;;;;;;13.55;3.50;;;3.60;99.90;;;;;;4976953;28;20026;-73
2022/01/21 13:22:58;;;;;;;11.15;3.47;;;3.60;99.90;;;;;;4977109;28;20511;-73
2022/01/21 13:25:25;;;;;;;12.63;3.63;;;;;;;;;;4978383;28;20109;-78
2022/01/21 13:27:53;;;;;;;12.77;3.47;;;3.70;99.90;;;;;;4977932;28;20058;-80
2022/01/21 13:30:21;;;;;;;15.93;4.43;;;3.70;99.90;;;;;;4970893;28;20065;-80
2022/01/21 13:32:56;;;;;;;15.98;4.38;;;3.70;99.90;;;;;;4978418;28;20038;-80
2022/01/21 13:35:24;;;;;;;14.48;4.03;;;3.70;99.90;;;;;;4979153;28;20038;-80
2022/01/21 13:38:12;;;;;;;10.38;2.95;;;3.70;99.90;;;;;;4975789;28;20462;-80
2022/01/21 13:40:58;;;;;;;15.82;3.63;;;3.70;99.90;;;;;;4981750;28;20031;-80
2022/01/21 13:43:27;;;;;;;13.98;3.95;;;3.70;99.90;;;;;;4979365;28;20034;-80
2022/01/21 13:46:03;;;;;;;13.77;4.85;;;3.70;99.90;;;;;;4982286;28;20105;-80
2022/01/21 13:48:32;;;;;;;16.17;4.28;;;3.70;99.90;;;;;;4973892;28;20042;-79
2022/01/21 13:51:01;;;;;;;11.50;3.38;;;3.70;99.90;;;;;;4984996;28;20022;-80
2022/01/21 13:53:27;;;;;;;11.15;3.15;;;3.80;99.90;;;;;;4630689;28;10001017;-75
2022/01/21 13:56:15;;;;;;;16.17;4.20;;;3.80;99.90;;;;;;4976138;28;20049;-76